Time;durP1;ratioP1;P1;durP2;ratioP2;P2;SDS_P1;SDS_P2;PMS_P1;PMS_P2;Temp;Humidity;BMP_temperature;BMP_pressure;BME280_temperature;BME280_humidity;BME280_pressure;Samples;Min_cycle;Max_cycle;Signal;HPM_P1;HPM_P2
2022/05/19 00:01:01;;;;;;;8.03;5.30;;;21.10;66.50;;;;;;5010718;28;20538;-48
2022/05/19 00:03:29;;;;;;;7.47;4.60;;;21.10;66.80;;;;;;5023784;28;20459;-47
2022/05/19 00:05:58;;;;;;;5.50;4.60;;;21.00;67.00;;;;;;5025669;28;20861;-48
2022/05/19 00:08:25;;;;;;;4.77;4.33;;;21.00;67.00;;;;;;5027982;28;20498;-47
2022/05/19 00:10:55;;;;;;;5.87;5.40;;;21.00;67.20;;;;;;5021313;28;20467;-46
2022/05/19 00:13:23;;;;;;;6.10;5.40;;;21.00;67.30;;;;;;5025709;28;20968;-46
2022/05/19 00:15:50;;;;;;;5.97;5.17;;;21.00;67.30;;;;;;5023211;28;20642;-47
2022/05/19 00:18:17;;;;;;;6.87;6.27;;;20.90;67.40;;;;;;5024606;28;20586;-47
2022/05/19 00:20:44;;;;;;;5.20;4.80;;;20.90;67.30;;;;;;5026310;28;20660;-47
2022/05/19 00:23:11;;;;;;;5.50;5.00;;;20.90;67.30;;;;;;5028252;28;20595;-47
2022/05/19 00:25:37;;;;;;;5.67;5.17;;;20.80;67.50;;;;;;5024992;28;20558;-47
2022/05/19 00:28:05;;;;;;;5.70;5.10;;;20.80;67.60;;;;;;5013270;28;21033;-47
2022/05/19 00:30:33;;;;;;;6.07;5.53;;;20.70;67.70;;;;;;5031059;28;20455;-47
2022/05/19 00:33:00;;;;;;;5.57;5.07;;;20.70;67.80;;;;;;5028157;28;20463;-47
2022/05/19 00:35:27;;;;;;;5.10;4.60;;;20.70;67.80;;;;;;5028257;28;20454;-47
2022/05/19 00:37:53;;;;;;;6.67;5.03;;;20.70;67.70;;;;;;5034385;28;20497;-47
2022/05/19 00:40:23;;;;;;;5.80;5.30;;;20.70;67.70;;;;;;5011372;28;20461;-47
2022/05/19 00:42:51;;;;;;;5.57;4.60;;;20.60;67.70;;;;;;5030726;28;20493;-47
2022/05/19 00:45:23;;;;;;;6.07;5.47;;;20.60;67.60;;;;;;5030531;28;20550;-47
2022/05/19 00:48:18;;;;;;;5.27;4.77;;;20.60;67.50;;;;;;5029963;28;21010;-47
2022/05/19 00:50:50;;;;;;;5.57;5.07;;;20.60;67.60;;;;;;5033950;28;20495;-47
2022/05/19 00:53:44;;;;;;;5.63;5.03;;;20.50;67.70;;;;;;5006517;28;20462;-47
2022/05/19 00:56:17;;;;;;;8.13;4.50;;;20.50;67.80;;;;;;5024246;28;20902;-47
2022/05/19 00:58:59;;;;;;;5.80;4.80;;;20.40;67.90;;;;;;5029441;28;20510;-47
2022/05/19 01:01:26;;;;;;;5.60;5.13;;;20.40;68.10;;;;;;5030861;28;20533;-47
2022/05/19 01:03:58;;;;;;;5.63;4.90;;;20.30;68.20;;;;;;5006100;28;20459;-47
2022/05/19 01:06:27;;;;;;;8.00;5.53;;;20.30;68.40;;;;;;5032682;28;20888;-47
2022/05/19 01:09:01;;;;;;;7.47;5.67;;;20.20;68.60;;;;;;5028756;28;21027;-47
2022/05/19 01:11:28;;;;;;;8.80;5.30;;;20.20;68.80;;;;;;5026371;28;20473;-48
2022/05/19 01:13:55;;;;;;;6.00;5.40;;;20.20;68.80;;;;;;5031208;28;20551;-47
2022/05/19 01:16:23;;;;;;;6.43;5.33;;;20.20;68.90;;;;;;5023271;28;20598;-47
2022/05/19 01:18:50;;;;;;;6.70;5.33;;;20.10;69.00;;;;;;5028126;28;21052;-47
2022/05/19 01:21:19;;;;;;;6.37;5.37;;;20.10;69.10;;;;;;5011963;28;20467;-46
2022/05/19 01:24:02;;;;;;;7.87;5.30;;;20.10;69.20;;;;;;5012392;28;20961;-47
2022/05/19 01:26:49;;;;;;;8.80;5.90;;;20.10;69.10;;;;;;5031197;28;20484;-47
2022/05/19 01:29:20;;;;;;;6.00;5.47;;;20.00;69.30;;;;;;5030346;28;20471;-46
2022/05/19 01:31:53;;;;;;;7.07;5.40;;;20.00;69.40;;;;;;5029705;28;21005;-46
2022/05/19 01:34:23;;;;;;;8.13;6.10;;;20.00;69.40;;;;;;5010243;28;20478;-46
2022/05/19 01:36:50;;;;;;;8.17;7.37;;;19.90;69.50;;;;;;5029405;28;20661;-46
2022/05/19 01:39:20;;;;;;;7.10;5.67;;;19.90;69.60;;;;;;5029202;28;20562;-46
2022/05/19 01:42:32;;;;;;;6.97;6.37;;;19.90;69.60;;;;;;5024915;28;21110;-47
2022/05/19 01:45:24;;;;;;;8.53;5.57;;;19.90;69.70;;;;;;5011159;28;20454;-46
2022/05/19 01:48:01;;;;;;;7.17;6.07;;;19.80;69.70;;;;;;5028595;28;20550;-46
2022/05/19 01:50:41;;;;;;;8.60;6.87;;;19.80;69.70;;;;;;5010643;28;20436;-46
2022/05/19 01:53:20;;;;;;;5.40;4.90;;;19.80;69.50;;;;;;5008696;28;20560;-46
2022/05/19 01:56:11;;;;;;;7.90;6.70;;;19.70;69.70;;;;;;5011880;28;20463;-46
2022/05/19 01:58:59;;;;;;;8.30;6.03;;;19.70;70.00;;;;;;5010425;28;20483;-46
2022/05/19 02:01:28;;;;;;;6.40;5.80;;;19.60;70.10;;;;;;5010110;28;20459;-47
2022/05/19 02:04:25;;;;;;;8.03;5.87;;;19.60;70.30;;;;;;5029461;28;20455;-46
2022/05/19 02:06:59;;;;;;;6.77;5.87;;;19.60;70.20;;;;;;5009085;28;20502;-47
2022/05/19 02:09:34;;;;;;;6.40;5.80;;;19.60;70.00;;;;;;5026923;28;20455;-46
2022/05/19 02:12:01;;;;;;;6.27;5.77;;;19.50;69.80;;;;;;5025278;28;20455;-47
2022/05/19 02:14:36;;;;;;;6.50;4.83;;;19.50;69.90;;;;;;5025643;28;20497;-47
2022/05/19 02:17:10;;;;;;;7.33;5.60;;;19.40;70.20;;;;;;5026247;28;20505;-46
2022/05/19 02:19:41;;;;;;;8.07;6.27;;;19.40;70.40;;;;;;5026084;28;20493;-46
2022/05/19 02:22:11;;;;;;;7.50;6.07;;;19.40;70.50;;;;;;5029173;28;20558;-46
2022/05/19 02:24:42;;;;;;;6.83;6.20;;;19.30;70.70;;;;;;5027910;28;20712;-46
2022/05/19 02:27:58;;;;;;;6.23;5.60;;;19.30;70.80;;;;;;5026696;28;20508;-46
2022/05/19 02:30:28;;;;;;;8.40;6.83;;;19.30;70.90;;;;;;5008346;28;20978;-46
2022/05/19 02:32:55;;;;;;;9.83;6.43;;;19.30;70.90;;;;;;5008397;28;20971;-46
2022/05/19 02:35:22;;;;;;;9.00;6.30;;;19.30;70.90;;;;;;5028737;28;20467;-46
2022/05/19 02:37:50;;;;;;;7.77;6.80;;;19.30;70.80;;;;;;5028159;28;21380;-45
2022/05/19 02:40:18;;;;;;;7.57;6.77;;;19.30;70.90;;;;;;5025661;28;20493;-45
2022/05/19 02:42:45;;;;;;;8.00;7.10;;;19.20;70.90;;;;;;5022980;28;20463;-45
2022/05/19 02:45:14;;;;;;;7.53;6.87;;;19.20;71.10;;;;;;5024772;28;20513;-45
2022/05/19 02:47:41;;;;;;;7.77;5.80;;;19.20;71.40;;;;;;5022703;28;20459;-45
2022/05/19 02:50:09;;;;;;;7.80;6.90;;;19.10;71.60;;;;;;5025589;28;20479;-45
2022/05/19 02:52:42;;;;;;;8.30;6.80;;;19.10;71.90;;;;;;5025733;28;20483;-46
2022/05/19 02:55:09;;;;;;;7.40;6.27;;;19.10;71.90;;;;;;5020465;28;20521;-46
2022/05/19 02:57:36;;;;;;;8.37;7.17;;;19.10;72.00;;;;;;5021147;28;20547;-47
2022/05/19 03:00:12;;;;;;;11.23;6.10;;;19.10;72.00;;;;;;5019144;28;20482;-47
2022/05/19 03:02:40;;;;;;;7.43;6.73;;;19.10;72.00;;;;;;5019304;28;20823;-47
2022/05/19 03:05:09;;;;;;;7.23;6.47;;;19.10;72.00;;;;;;5020275;28;20468;-47
2022/05/19 03:07:36;;;;;;;6.33;5.73;;;19.10;72.00;;;;;;5029433;28;20458;-47
2022/05/19 03:10:04;;;;;;;6.87;6.10;;;19.00;72.10;;;;;;5031123;28;20468;-47
2022/05/19 03:12:31;;;;;;;7.53;6.57;;;19.00;72.20;;;;;;5025888;28;20474;-47
2022/05/19 03:14:58;;;;;;;7.13;6.47;;;19.00;72.20;;;;;;5024042;28;20925;-47
2022/05/19 03:17:25;;;;;;;7.67;6.63;;;19.00;72.20;;;;;;5026652;28;20451;-47
2022/05/19 03:19:53;;;;;;;7.90;6.37;;;19.00;72.20;;;;;;5014254;28;20495;-47
2022/05/19 03:22:20;;;;;;;11.50;6.80;;;19.00;72.20;;;;;;5028998;28;20550;-47
2022/05/19 03:24:48;;;;;;;6.60;6.00;;;18.90;72.30;;;;;;5028775;28;20452;-48
2022/05/19 03:27:15;;;;;;;7.90;7.10;;;18.90;72.40;;;;;;5028882;28;20474;-46
2022/05/19 03:29:42;;;;;;;6.90;6.20;;;18.90;72.50;;;;;;5010594;28;20555;-46
2022/05/19 03:32:08;;;;;;;6.53;5.70;;;18.90;72.50;;;;;;5030001;28;20479;-46
2022/05/19 03:34:35;;;;;;;8.93;6.53;;;18.90;72.40;;;;;;5026490;28;20479;-46
2022/05/19 03:37:04;;;;;;;7.70;6.20;;;18.80;72.40;;;;;;5030907;28;21308;-46
2022/05/19 03:39:31;;;;;;;6.27;5.63;;;18.80;72.40;;;;;;5029460;28;20506;-46
2022/05/19 03:41:58;;;;;;;7.50;6.80;;;18.80;72.60;;;;;;5028074;28;20986;-47
2022/05/19 03:44:26;;;;;;;7.10;6.50;;;18.80;72.50;;;;;;5029672;28;20495;-46
2022/05/19 03:46:52;;;;;;;7.00;6.30;;;18.80;72.60;;;;;;5028351;28;20812;-46
2022/05/19 03:49:19;;;;;;;8.90;7.20;;;18.80;72.70;;;;;;5027971;28;20502;-47
2022/05/19 03:51:46;;;;;;;7.70;7.00;;;18.80;72.80;;;;;;5009139;28;20495;-47
2022/05/19 03:54:13;;;;;;;7.63;6.83;;;18.80;72.70;;;;;;5011985;28;20556;-47
2022/05/19 03:56:40;;;;;;;7.90;6.77;;;18.80;72.80;;;;;;5025588;28;20828;-47
2022/05/19 03:59:09;;;;;;;7.03;6.33;;;18.80;72.60;;;;;;5032803;28;20505;-47
2022/05/19 04:01:36;;;;;;;8.50;6.63;;;18.70;72.50;;;;;;5032786;28;20455;-47
2022/05/19 04:04:03;;;;;;;7.60;6.90;;;18.70;72.90;;;;;;5032158;28;20458;-47
2022/05/19 04:06:30;;;;;;;8.53;6.63;;;18.70;72.70;;;;;;5014630;28;20510;-47
2022/05/19 04:08:56;;;;;;;8.10;6.93;;;18.70;72.60;;;;;;5031146;28;20470;-47
2022/05/19 04:11:23;;;;;;;7.10;6.40;;;18.70;72.70;;;;;;5028714;28;20460;-47
2022/05/19 04:13:50;;;;;;;7.90;6.37;;;18.70;72.70;;;;;;5032846;28;20481;-47
2022/05/19 04:16:17;;;;;;;6.83;6.20;;;18.70;72.70;;;;;;5033402;28;20475;-47
2022/05/19 04:18:43;;;;;;;7.03;6.33;;;18.70;72.70;;;;;;5035346;28;20494;-47
2022/05/19 04:21:10;;;;;;;7.63;6.37;;;18.60;72.90;;;;;;5031031;28;20964;-47
2022/05/19 04:23:37;;;;;;;8.40;6.93;;;18.60;72.90;;;;;;5031343;28;20466;-47
2022/05/19 04:26:04;;;;;;;9.27;6.90;;;18.60;73.00;;;;;;5031264;28;20459;-47
2022/05/19 04:28:32;;;;;;;7.80;6.70;;;18.60;73.10;;;;;;5029833;28;20467;-47
2022/05/19 04:31:00;;;;;;;8.13;6.60;;;18.70;73.10;;;;;;5029607;28;20483;-47
2022/05/19 04:33:27;;;;;;;9.73;6.47;;;18.70;73.00;;;;;;5011777;28;20455;-47
2022/05/19 04:35:55;;;;;;;6.77;6.07;;;18.70;73.20;;;;;;5025844;28;20455;-47
2022/05/19 04:38:22;;;;;;;7.17;6.27;;;18.70;73.10;;;;;;5033007;28;20462;-47
2022/05/19 04:40:49;;;;;;;8.40;6.67;;;18.70;73.10;;;;;;5036167;28;20487;-47
2022/05/19 04:43:23;;;;;;;7.63;6.83;;;18.70;73.20;;;;;;5026357;28;20609;-47
2022/05/19 04:45:51;;;;;;;7.87;7.10;;;18.70;73.30;;;;;;5028166;28;20462;-47
2022/05/19 04:48:18;;;;;;;7.87;7.07;;;18.70;73.30;;;;;;5028348;28;20456;-47
2022/05/19 04:50:46;;;;;;;8.10;6.60;;;18.70;73.20;;;;;;5028325;28;20465;-48
2022/05/19 04:53:13;;;;;;;7.70;6.47;;;18.70;73.10;;;;;;5029395;28;20936;-48
2022/05/19 04:55:40;;;;;;;8.23;7.40;;;18.70;73.00;;;;;;5030468;28;20952;-48
2022/05/19 04:58:07;;;;;;;8.97;6.10;;;18.70;72.90;;;;;;5025571;28;20506;-47
2022/05/19 05:00:35;;;;;;;9.97;6.73;;;18.80;72.80;;;;;;5031160;28;20574;-48
2022/05/19 05:03:03;;;;;;;8.03;7.23;;;18.80;72.60;;;;;;5028365;28;20473;-47
2022/05/19 05:05:29;;;;;;;10.80;7.13;;;18.80;72.70;;;;;;5024530;28;20490;-47
2022/05/19 05:07:56;;;;;;;7.60;6.90;;;18.80;72.80;;;;;;5008352;28;20546;-48
2022/05/19 05:10:23;;;;;;;8.10;7.30;;;18.90;72.90;;;;;;5027114;28;20463;-47
2022/05/19 05:12:50;;;;;;;8.40;7.20;;;18.90;73.00;;;;;;5028003;28;20913;-47
2022/05/19 05:15:17;;;;;;;7.67;6.90;;;18.90;73.20;;;;;;5007863;28;20519;-47
2022/05/19 05:17:44;;;;;;;8.67;7.20;;;18.90;73.30;;;;;;5030841;28;20804;-47
2022/05/19 05:20:15;;;;;;;9.20;8.30;;;19.00;73.80;;;;;;5024503;28;20507;-47
2022/05/19 05:22:42;;;;;;;8.77;7.73;;;19.00;73.80;;;;;;5021758;28;20456;-47
2022/05/19 05:25:13;;;;;;;7.37;6.67;;;19.00;73.80;;;;;;5027571;28;20573;-47
2022/05/19 05:27:40;;;;;;;7.73;7.03;;;19.10;73.90;;;;;;5029918;28;20822;-47
2022/05/19 05:30:08;;;;;;;7.53;6.37;;;19.20;74.10;;;;;;5009025;28;20471;-47
2022/05/19 05:32:35;;;;;;;7.70;6.93;;;19.20;74.00;;;;;;5033098;28;20479;-47
2022/05/19 05:35:04;;;;;;;8.23;7.43;;;19.30;73.80;;;;;;5031981;28;20473;-47
2022/05/19 05:37:30;;;;;;;7.43;6.57;;;19.30;73.70;;;;;;5024618;28;20483;-47
2022/05/19 05:39:57;;;;;;;8.80;8.00;;;19.30;73.60;;;;;;5029753;28;20860;-47
2022/05/19 05:42:24;;;;;;;12.30;7.80;;;19.30;73.60;;;;;;5023846;28;20623;-47
2022/05/19 05:44:51;;;;;;;8.40;7.37;;;19.40;73.60;;;;;;5027473;28;20458;-47
2022/05/19 05:47:24;;;;;;;9.13;6.47;;;19.40;73.70;;;;;;5024468;28;20459;-48
2022/05/19 05:49:51;;;;;;;8.57;6.90;;;19.40;72.80;;;;;;5015460;28;20442;-48
2022/05/19 05:52:18;;;;;;;7.57;6.10;;;19.50;71.80;;;;;;5028242;28;20471;-48
2022/05/19 05:54:45;;;;;;;5.73;5.20;;;19.60;72.00;;;;;;5028087;28;20451;-48
2022/05/19 05:57:11;;;;;;;5.83;5.23;;;19.70;70.90;;;;;;5028846;28;20533;-47
2022/05/19 05:59:38;;;;;;;5.27;4.10;;;19.80;68.70;;;;;;5024951;28;20514;-48
2022/05/19 06:02:05;;;;;;;7.80;5.13;;;19.90;67.20;;;;;;5023575;28;20456;-47
2022/05/19 06:04:33;;;;;;;4.60;4.20;;;20.00;68.30;;;;;;5026392;28;20455;-47
2022/05/19 06:07:00;;;;;;;5.97;5.37;;;20.10;67.10;;;;;;5028150;28;20760;-47
2022/05/19 06:09:26;;;;;;;5.43;4.13;;;20.10;64.70;;;;;;5015064;28;20460;-47
2022/05/19 06:11:53;;;;;;;4.40;4.00;;;20.30;63.00;;;;;;5025208;28;20902;-47
2022/05/19 06:14:20;;;;;;;7.20;4.20;;;20.40;62.40;;;;;;5022499;28;20487;-47
2022/05/19 06:16:46;;;;;;;4.77;4.07;;;20.50;61.70;;;;;;5022613;28;20469;-47
2022/05/19 06:19:13;;;;;;;4.43;4.03;;;20.60;61.50;;;;;;5010087;28;20510;-48
2022/05/19 06:21:40;;;;;;;4.70;3.90;;;20.70;61.40;;;;;;5007750;28;20578;-48
2022/05/19 06:24:08;;;;;;;4.00;3.60;;;20.70;61.20;;;;;;5008023;28;20835;-48
2022/05/19 06:26:39;;;;;;;6.13;4.00;;;20.80;60.40;;;;;;5026759;28;21189;-48
2022/05/19 06:29:07;;;;;;;4.30;3.50;;;21.00;59.10;;;;;;5026049;28;20475;-48
2022/05/19 06:31:35;;;;;;;4.70;3.83;;;21.10;59.10;;;;;;5026283;28;20485;-48
2022/05/19 06:34:02;;;;;;;6.10;3.83;;;21.20;59.30;;;;;;5028874;28;20474;-48
2022/05/19 06:36:29;;;;;;;4.93;3.83;;;21.30;59.30;;;;;;5025915;28;20475;-47
2022/05/19 06:38:56;;;;;;;3.60;3.30;;;21.40;59.00;;;;;;5023919;28;20956;-47
2022/05/19 06:44:13;;;;;;;6.00;3.80;;;21.70;58.90;;;;;;5031650;28;20471;-48
2022/05/19 06:46:40;;;;;;;4.67;3.30;;;21.80;58.30;;;;;;5024002;28;20554;-47
2022/05/19 06:49:07;;;;;;;4.27;3.93;;;21.90;58.00;;;;;;5024665;28;20462;-47
2022/05/19 06:51:33;;;;;;;5.23;4.27;;;22.10;57.40;;;;;;5029289;28;20459;-50
2022/05/19 06:54:00;;;;;;;5.13;3.93;;;22.20;56.30;;;;;;5056406;28;20447;-50
2022/05/19 06:56:27;;;;;;;4.57;3.87;;;22.20;56.00;;;;;;5049205;28;20514;-50
2022/05/19 06:58:54;;;;;;;5.27;3.40;;;22.30;56.50;;;;;;5049391;28;20447;-50
2022/05/19 07:01:21;;;;;;;5.10;4.67;;;22.40;56.70;;;;;;5047315;28;20468;-50
2022/05/19 07:03:51;;;;;;;5.73;3.77;;;22.60;56.40;;;;;;5035139;28;20549;-49
2022/05/19 07:06:18;;;;;;;6.33;4.37;;;22.70;56.50;;;;;;5060505;23;20971;-45
2022/05/19 07:08:45;;;;;;;3.77;3.40;;;22.80;55.10;;;;;;5005876;28;20477;-49
2022/05/19 07:11:27;;;;;;;4.00;3.37;;;22.90;54.70;;;;;;5010071;28;20451;-50
2022/05/19 07:14:02;;;;;;;8.87;3.43;;;22.90;53.80;;;;;;4990086;28;20455;-45
2022/05/19 07:16:30;;;;;;;5.73;4.00;;;23.00;54.00;;;;;;5003138;28;20463;-46
2022/05/19 07:21:45;;;;;;;5.73;3.70;;;23.20;53.90;;;;;;5008835;28;20527;-45
2022/05/19 07:24:15;;;;;;;5.40;4.13;;;23.40;54.30;;;;;;5013082;28;20531;-45
2022/05/19 07:26:44;;;;;;;7.20;4.13;;;23.50;54.80;;;;;;5007859;28;20471;-45
2022/05/19 07:29:11;;;;;;;9.30;4.23;;;23.60;54.30;;;;;;5009171;28;20474;-45
2022/05/19 07:31:38;;;;;;;9.73;3.70;;;23.70;53.50;;;;;;4988845;28;20569;-46
2022/05/19 07:34:06;;;;;;;4.93;4.33;;;23.90;53.50;;;;;;5009410;28;20856;-45
2022/05/19 07:36:33;;;;;;;6.27;4.00;;;24.00;52.80;;;;;;5010524;28;20459;-46
2022/05/19 07:39:00;;;;;;;10.87;3.40;;;24.10;52.60;;;;;;4995124;28;20479;-46
2022/05/19 07:41:28;;;;;;;5.93;3.90;;;24.20;52.80;;;;;;5004324;28;20487;-46
2022/05/19 07:43:57;;;;;;;4.20;3.20;;;24.40;52.20;;;;;;4989919;28;20447;-46
2022/05/19 07:46:26;;;;;;;3.20;2.90;;;24.50;51.60;;;;;;5012397;28;20497;-46
2022/05/19 07:48:54;;;;;;;3.83;3.50;;;24.60;51.60;;;;;;5011877;28;20478;-46
2022/05/19 07:51:22;;;;;;;7.37;3.40;;;24.70;51.80;;;;;;5014343;28;20884;-46
2022/05/19 07:53:50;;;;;;;3.50;3.20;;;24.80;51.20;;;;;;5009858;28;20464;-46
2022/05/19 07:56:20;;;;;;;5.93;3.70;;;24.90;50.20;;;;;;5011553;28;20464;-47
2022/05/19 07:58:51;;;;;;;7.20;3.53;;;25.00;49.50;;;;;;5012276;28;20462;-47
2022/05/19 08:01:18;;;;;;;6.90;3.43;;;25.10;49.60;;;;;;4992097;28;20486;-46
2022/05/19 08:03:44;;;;;;;4.00;3.10;;;25.30;49.30;;;;;;5006675;28;20487;-47
2022/05/19 08:06:12;;;;;;;4.10;3.17;;;25.40;48.70;;;;;;5005245;28;20494;-46
2022/05/19 08:08:39;;;;;;;3.47;2.60;;;25.60;48.80;;;;;;5009009;28;20559;-45
2022/05/19 08:11:06;;;;;;;4.03;2.30;;;25.80;45.30;;;;;;5004652;28;21126;-45
2022/05/19 08:16:19;;;;;;;3.50;2.57;;;26.00;44.50;;;;;;5007118;28;20908;-46
2022/05/19 08:18:46;;;;;;;2.90;2.60;;;26.10;44.80;;;;;;5007707;28;20463;-45
2022/05/19 08:21:13;;;;;;;2.57;2.37;;;26.20;44.80;;;;;;5012041;28;20871;-46
2022/05/19 08:23:47;;;;;;;3.30;2.40;;;26.30;44.90;;;;;;5008852;28;20854;-45
2022/05/19 08:26:14;;;;;;;3.50;3.20;;;26.40;45.40;;;;;;5003526;28;20472;-46
2022/05/19 08:28:42;;;;;;;3.63;3.30;;;26.50;45.30;;;;;;5011736;28;20473;-45
2022/05/19 08:31:16;;;;;;;5.50;3.03;;;26.50;45.30;;;;;;4989717;28;20675;-46
2022/05/19 08:33:45;;;;;;;3.17;2.80;;;26.60;45.50;;;;;;4992724;28;20889;-46
2022/05/19 08:36:12;;;;;;;3.10;2.87;;;26.70;46.00;;;;;;4997004;28;20546;-46
2022/05/19 08:38:40;;;;;;;6.93;2.93;;;26.80;46.10;;;;;;5007433;28;20463;-45
2022/05/19 08:41:23;;;;;;;3.97;3.30;;;26.90;45.90;;;;;;5006815;28;20565;-45
2022/05/19 08:44:04;;;;;;;4.30;3.20;;;27.00;45.90;;;;;;5006444;28;20459;-45
2022/05/19 08:46:35;;;;;;;4.60;3.27;;;27.20;45.50;;;;;;4991943;28;20984;-45
2022/05/19 08:49:10;;;;;;;4.80;3.30;;;27.30;45.80;;;;;;5011911;28;20444;-46
2022/05/19 08:51:44;;;;;;;6.60;2.87;;;27.40;45.60;;;;;;5009238;28;20801;-47
2022/05/19 08:54:16;;;;;;;4.67;3.10;;;27.60;45.50;;;;;;5006446;28;20331;-46
2022/05/19 08:57:03;;;;;;;3.37;2.90;;;27.70;45.70;;;;;;5006626;28;20205;-46
2022/05/19 08:59:45;;;;;;;8.10;4.07;;;27.70;44.90;;;;;;5009559;28;20554;-47
2022/05/19 09:02:19;;;;;;;3.33;3.03;;;27.70;45.20;;;;;;4987643;28;20467;-47
2022/05/19 09:04:50;;;;;;;5.30;3.47;;;27.80;45.70;;;;;;5006660;28;20208;-45
2022/05/19 09:10:33;;;;;;;4.20;3.60;;;28.10;46.30;;;;;;5007276;28;20209;-45
2022/05/19 09:13:16;;;;;;;5.10;3.20;;;28.20;46.00;;;;;;5003476;28;20613;-46
2022/05/19 09:15:47;;;;;;;5.53;3.20;;;28.50;44.80;;;;;;5020621;28;20215;-49
2022/05/19 09:18:18;;;;;;;6.73;2.90;;;28.50;45.00;;;;;;5021385;28;20235;-49
2022/05/19 09:20:51;;;;;;;5.43;3.10;;;28.60;45.60;;;;;;5025676;28;20319;-49
2022/05/19 09:23:18;;;;;;;4.13;3.80;;;28.70;45.10;;;;;;5020468;28;20205;-49
2022/05/19 09:25:54;;;;;;;5.20;3.60;;;28.80;44.60;;;;;;4983609;28;20211;-48
2022/05/19 09:28:22;;;;;;;3.73;3.20;;;29.00;44.50;;;;;;5018620;28;20208;-48
2022/05/19 09:30:53;;;;;;;3.87;3.37;;;29.20;44.50;;;;;;4999742;28;20233;-48
2022/05/19 09:33:29;;;;;;;5.80;3.63;;;29.40;44.40;;;;;;5013137;28;20216;-48
2022/05/19 09:36:00;;;;;;;3.60;3.30;;;29.40;43.90;;;;;;5013231;28;20603;-48
2022/05/19 09:38:48;;;;;;;9.75;3.60;;;29.70;43.60;;;;;;5012792;28;20709;-48
2022/05/19 09:41:39;;;;;;;4.60;3.30;;;29.90;43.20;;;;;;5003330;28;20239;-48
2022/05/19 09:44:11;;;;;;;4.80;3.80;;;30.10;43.30;;;;;;4988886;28;20220;-49
2022/05/19 09:46:47;;;;;;;3.40;2.97;;;30.40;43.20;;;;;;4993784;28;20295;-49
2022/05/19 09:49:34;;;;;;;6.03;3.80;;;30.60;42.60;;;;;;5009324;28;20291;-49
2022/05/19 09:52:04;;;;;;;4.28;3.30;;;30.80;42.30;;;;;;5012588;28;21161;-48
2022/05/19 09:54:33;;;;;;;3.60;3.30;;;31.00;42.30;;;;;;4991575;28;20277;-48
2022/05/19 09:57:24;;;;;;;4.47;3.75;;;31.00;41.80;;;;;;5009056;28;20272;-48
2022/05/19 09:59:53;;;;;;;3.42;3.17;;;31.10;41.80;;;;;;5009946;28;20638;-49
2022/05/19 10:02:23;;;;;;;4.15;3.22;;;31.10;41.80;;;;;;5010422;28;20223;-49
2022/05/19 10:04:55;;;;;;;3.88;3.38;;;31.20;41.00;;;;;;5009577;28;20760;-48
2022/05/19 10:07:24;;;;;;;4.93;4.05;;;31.10;41.10;;;;;;5002799;28;20216;-49
2022/05/19 10:09:54;;;;;;;4.60;3.88;;;31.10;40.90;;;;;;5011355;28;20299;-49
2022/05/19 10:12:28;;;;;;;4.50;3.08;;;31.10;41.10;;;;;;5009320;28;20228;-49
2022/05/19 10:15:15;;;;;;;6.25;3.50;;;31.20;41.30;;;;;;5005648;28;20250;-49
2022/05/19 10:18:07;;;;;;;6.10;3.17;;;31.30;41.40;;;;;;4988637;28;20205;-49
2022/05/19 10:20:40;;;;;;;3.65;3.35;;;31.30;41.20;;;;;;5008001;28;20685;-49
2022/05/19 10:23:44;;;;;;;3.28;3.03;;;31.30;41.40;;;;;;5010069;28;21032;-48
2022/05/19 10:26:49;;;;;;;4.53;3.50;;;31.10;41.80;;;;;;5011197;28;20228;-48
2022/05/19 10:32:51;;;;;;;4.40;3.63;;;30.60;42.60;;;;;;4977071;28;20235;-45
2022/05/19 10:35:45;;;;;;;5.07;4.05;;;30.60;43.30;;;;;;5006746;28;20261;-45
2022/05/19 10:38:15;;;;;;;4.03;3.65;;;30.50;43.10;;;;;;5005778;28;20668;-45
2022/05/19 10:40:53;;;;;;;4.85;3.80;;;30.30;43.70;;;;;;5004186;28;20232;-45
2022/05/19 10:43:45;;;;;;;3.60;3.30;;;30.00;44.00;;;;;;5008743;28;20668;-45
2022/05/19 10:46:15;;;;;;;5.38;3.65;;;29.70;44.30;;;;;;4984188;28;20224;-46
2022/05/19 10:48:52;;;;;;;4.13;3.78;;;29.60;44.90;;;;;;5003977;28;20205;-46
2022/05/19 10:51:50;;;;;;;6.82;4.07;;;29.40;45.20;;;;;;5003715;28;20205;-46
2022/05/19 10:54:26;;;;;;;6.70;4.13;;;29.40;45.80;;;;;;4986759;28;20312;-45
2022/05/19 10:57:11;;;;;;;4.50;4.10;;;29.20;46.10;;;;;;5007037;28;20215;-46
2022/05/19 11:00:06;;;;;;;5.43;4.57;;;29.10;46.90;;;;;;5005353;28;20228;-45
2022/05/19 11:03:02;;;;;;;6.63;4.43;;;28.90;46.40;;;;;;5004230;28;20213;-46
2022/05/19 11:05:34;;;;;;;5.13;4.50;;;28.80;46.90;;;;;;5007995;28;20220;-46
2022/05/19 11:08:30;;;;;;;6.33;4.03;;;28.80;47.00;;;;;;5004537;28;20571;-46
2022/05/19 11:11:18;;;;;;;4.05;3.53;;;28.80;47.10;;;;;;4992732;28;20213;-45
2022/05/19 11:14:00;;;;;;;4.37;3.97;;;28.70;47.70;;;;;;4987530;28;20207;-46
2022/05/19 11:16:34;;;;;;;5.77;3.93;;;28.70;47.40;;;;;;5002100;28;20694;-46
2022/05/19 11:19:06;;;;;;;5.27;4.07;;;28.70;47.40;;;;;;5000313;28;20652;-46
2022/05/19 11:22:06;;;;;;;4.83;4.00;;;28.60;47.30;;;;;;5002637;28;20343;-46
2022/05/19 11:28:08;;;;;;;5.00;3.67;;;28.70;47.40;;;;;;5006070;28;20209;-45
2022/05/19 11:30:46;;;;;;;5.70;4.40;;;28.70;47.70;;;;;;4986489;28;20261;-45
2022/05/19 11:33:20;;;;;;;6.90;3.57;;;28.70;46.90;;;;;;5000989;28;20217;-45
2022/05/19 11:35:59;;;;;;;4.57;4.07;;;28.70;47.60;;;;;;5003413;28;20220;-45
2022/05/19 11:38:31;;;;;;;4.87;4.20;;;28.70;47.30;;;;;;5006716;28;20208;-45
2022/05/19 11:41:10;;;;;;;5.40;4.47;;;28.70;47.40;;;;;;5006522;28;20250;-45
2022/05/19 11:43:44;;;;;;;6.70;4.03;;;28.70;47.40;;;;;;4988168;28;20204;-46
2022/05/19 11:46:17;;;;;;;5.37;3.77;;;28.60;47.40;;;;;;4996445;28;20218;-45
2022/05/19 11:55:17;;;;;;;6.60;4.15;;;28.80;48.00;;;;;;5001304;28;20215;-46
2022/05/19 11:57:54;;;;;;;9.87;4.30;;;28.90;48.20;;;;;;5002840;28;20208;-46
2022/05/19 12:00:37;;;;;;;6.83;4.30;;;29.00;48.60;;;;;;5005004;28;20220;-46
2022/05/19 12:03:19;;;;;;;5.63;4.40;;;29.00;47.80;;;;;;5003002;28;20232;-46
2022/05/19 12:06:20;;;;;;;4.37;3.97;;;29.10;48.90;;;;;;5005588;28;20225;-46
2022/05/19 12:09:03;;;;;;;5.77;4.30;;;29.10;47.70;;;;;;4942534;28;20262;-46
2022/05/19 12:11:50;;;;;;;4.70;4.00;;;29.10;47.60;;;;;;5005879;28;20255;-46
2022/05/19 12:14:19;;;;;;;4.80;4.13;;;29.10;47.90;;;;;;5005003;28;20297;-46
2022/05/19 12:17:03;;;;;;;5.80;4.37;;;29.10;48.10;;;;;;5002540;28;20204;-45
2022/05/19 12:19:40;;;;;;;6.32;4.40;;;29.10;48.90;;;;;;5008001;28;20201;-46
2022/05/19 12:22:18;;;;;;;6.97;4.30;;;29.20;48.70;;;;;;5002531;28;20228;-46
2022/05/19 12:24:54;;;;;;;6.07;4.15;;;29.30;47.70;;;;;;5011735;28;20744;-46
2022/05/19 12:27:35;;;;;;;6.57;4.13;;;29.40;48.00;;;;;;5010747;28;20636;-46
2022/05/19 12:33:30;;;;;;;7.00;4.43;;;29.40;48.20;;;;;;5005530;28;20204;-45
2022/05/19 12:36:05;;;;;;;6.47;5.85;;;29.20;48.10;;;;;;5001215;28;20232;-46
2022/05/19 12:38:37;;;;;;;8.85;4.53;;;29.20;48.30;;;;;;4987339;28;20212;-45
2022/05/19 12:41:23;;;;;;;6.05;4.18;;;29.20;48.20;;;;;;5009742;28;20709;-46
2022/05/19 12:43:51;;;;;;;5.07;4.27;;;29.20;48.80;;;;;;5010211;28;20200;-46
2022/05/19 12:46:33;;;;;;;4.90;4.47;;;29.10;48.90;;;;;;4991622;28;20213;-46
2022/05/19 12:49:25;;;;;;;7.70;3.70;;;29.10;48.70;;;;;;5005139;28;20208;-46
2022/05/19 12:51:54;;;;;;;4.80;4.50;;;29.20;49.20;;;;;;5006733;28;20209;-47
2022/05/19 12:54:25;;;;;;;9.27;4.63;;;29.20;49.00;;;;;;5007432;28;20213;-46
2022/05/19 12:56:59;;;;;;;6.63;4.60;;;29.20;48.90;;;;;;5009712;28;20262;-45
2022/05/19 13:00:08;;;;;;;7.10;4.75;;;29.30;49.00;;;;;;5001792;28;20205;-44
2022/05/19 13:02:46;;;;;;;8.50;4.53;;;29.40;48.90;;;;;;4999075;28;20331;-43
2022/05/19 13:05:22;;;;;;;7.22;4.00;;;29.50;49.70;;;;;;5003745;28;20403;-43
2022/05/19 13:08:03;;;;;;;8.30;4.72;;;29.60;49.30;;;;;;4999050;28;20228;-44
2022/05/19 13:10:39;;;;;;;4.60;4.22;;;29.60;49.30;;;;;;4982860;28;20196;-43
2022/05/19 13:13:31;;;;;;;4.63;4.30;;;29.70;49.30;;;;;;4986463;28;20211;-43
2022/05/19 13:16:02;;;;;;;5.20;4.15;;;29.70;49.40;;;;;;5008578;28;20291;-44
2022/05/19 13:18:33;;;;;;;4.80;4.40;;;29.80;49.10;;;;;;4990488;28;20621;-44
2022/05/19 13:21:07;;;;;;;5.20;4.80;;;29.80;49.40;;;;;;5008026;28;20228;-44
2022/05/19 13:23:37;;;;;;;5.88;4.47;;;29.80;49.80;;;;;;5011968;28;20209;-44
2022/05/19 13:26:14;;;;;;;4.63;4.20;;;29.80;49.60;;;;;;5008726;28;20235;-44
2022/05/19 13:31:28;;;;;;;6.10;5.45;;;29.90;48.90;;;;;;5009036;28;20766;-44
2022/05/19 13:33:58;;;;;;;6.10;4.88;;;30.00;49.00;;;;;;5004481;28;20608;-44
2022/05/19 13:36:35;;;;;;;6.47;5.00;;;30.00;49.00;;;;;;5000224;28;20211;-44
2022/05/19 13:39:14;;;;;;;8.35;5.13;;;30.00;48.90;;;;;;4983990;28;20729;-43
2022/05/19 13:41:56;;;;;;;5.50;5.00;;;30.00;49.20;;;;;;4995917;28;20629;-44
2022/05/19 13:44:31;;;;;;;4.90;4.47;;;30.00;49.20;;;;;;4987252;28;20227;-43